Terminal Aerodrome Forecast
Issued by NWS Grand Forks, ND

Home | Current Version | Previous Version | Text Only | Print | Product List | Glossary On
Versions: 1 2 3 4 5 6 7 8 9 10 11 12 13 14 15 16 17 18 19 20 21 22 23 24 25 26
000
FTUS43 KFGF 051122
TAFGFK
TAF
KGFK 051122Z 0512/0612 36010KT P6SM OVC002
     FM051400 02010KT P6SM OVC008
      TEMPO 0514/0516 BKN004
     FM051600 06010KT P6SM OVC008
     FM051800 08008KT P6SM BKN015
     FM052200 VRB06KT P6SM VCTS BKN050CB
     FM060600 16006KT P6SM SCT008=

USA.gov is the U.S. government's official web portal to all federal, state and local government web resources and services.